sensor_id;sensor_type;location;lat;lon;timestamp;P1;durP1;ratioP1;P2;durP2;ratioP2
31728;SDS011;18309;43.658;1.312;2022-07-15T00:00:26;5.03;;;1.80;;
31728;SDS011;18309;43.658;1.312;2022-07-15T00:02:52;3.08;;;1.60;;
31728;SDS011;18309;43.658;1.312;2022-07-15T00:05:18;5.28;;;1.70;;
31728;SDS011;18309;43.658;1.312;2022-07-15T00:07:44;5.22;;;2.03;;
31728;SDS011;18309;43.658;1.312;2022-07-15T00:10:10;4.80;;;1.48;;
31728;SDS011;18309;43.658;1.312;2022-07-15T00:12:40;2.30;;;1.48;;
31728;SDS011;18309;43.658;1.312;2022-07-15T00:15:07;2.85;;;1.30;;
31728;SDS011;18309;43.658;1.312;2022-07-15T00:17:33;5.00;;;1.60;;
31728;SDS011;18309;43.658;1.312;2022-07-15T00:19:59;9.50;;;2.03;;
31728;SDS011;18309;43.658;1.312;2022-07-15T00:22:24;3.65;;;1.55;;
31728;SDS011;18309;43.658;1.312;2022-07-15T00:24:50;6.82;;;2.67;;
31728;SDS011;18309;43.658;1.312;2022-07-15T00:27:16;4.75;;;2.30;;
31728;SDS011;18309;43.658;1.312;2022-07-15T00:29:42;6.55;;;2.10;;
31728;SDS011;18309;43.658;1.312;2022-07-15T00:32:08;3.13;;;1.63;;
31728;SDS011;18309;43.658;1.312;2022-07-15T00:34:34;6.45;;;2.17;;
31728;SDS011;18309;43.658;1.312;2022-07-15T00:36:59;7.30;;;2.20;;
31728;SDS011;18309;43.658;1.312;2022-07-15T00:39:25;7.65;;;1.83;;
31728;SDS011;18309;43.658;1.312;2022-07-15T00:41:51;4.97;;;2.00;;
31728;SDS011;18309;43.658;1.312;2022-07-15T00:44:16;3.85;;;1.90;;
31728;SDS011;18309;43.658;1.312;2022-07-15T00:46:42;4.47;;;1.98;;
31728;SDS011;18309;43.658;1.312;2022-07-15T00:49:09;4.40;;;2.17;;
31728;SDS011;18309;43.658;1.312;2022-07-15T00:51:43;2.40;;;1.80;;
31728;SDS011;18309;43.658;1.312;2022-07-15T00:54:12;7.55;;;1.83;;
31728;SDS011;18309;43.658;1.312;2022-07-15T00:56:40;8.40;;;2.35;;
31728;SDS011;18309;43.658;1.312;2022-07-15T00:59:10;5.30;;;1.95;;
31728;SDS011;18309;43.658;1.312;2022-07-15T01:01:38;5.72;;;2.33;;
31728;SDS011;18309;43.658;1.312;2022-07-15T01:04:06;4.80;;;2.40;;
31728;SDS011;18309;43.658;1.312;2022-07-15T01:06:32;7.60;;;2.67;;
31728;SDS011;18309;43.658;1.312;2022-07-15T01:08:58;5.40;;;3.25;;
31728;SDS011;18309;43.658;1.312;2022-07-15T01:11:25;6.20;;;3.33;;
31728;SDS011;18309;43.658;1.312;2022-07-15T01:13:51;4.65;;;2.60;;
31728;SDS011;18309;43.658;1.312;2022-07-15T01:16:17;8.13;;;3.67;;
31728;SDS011;18309;43.658;1.312;2022-07-15T01:18:42;8.70;;;3.58;;
31728;SDS011;18309;43.658;1.312;2022-07-15T01:21:08;14.80;;;4.25;;
31728;SDS011;18309;43.658;1.312;2022-07-15T01:23:34;10.93;;;4.55;;
31728;SDS011;18309;43.658;1.312;2022-07-15T01:26:01;8.55;;;5.07;;
31728;SDS011;18309;43.658;1.312;2022-07-15T01:28:27;13.18;;;5.20;;
31728;SDS011;18309;43.658;1.312;2022-07-15T01:30:52;12.35;;;5.70;;
31728;SDS011;18309;43.658;1.312;2022-07-15T01:33:18;10.50;;;6.65;;
31728;SDS011;18309;43.658;1.312;2022-07-15T01:35:44;11.82;;;6.07;;
31728;SDS011;18309;43.658;1.312;2022-07-15T01:38:09;10.27;;;6.95;;
31728;SDS011;18309;43.658;1.312;2022-07-15T01:40:35;10.98;;;7.95;;
31728;SDS011;18309;43.658;1.312;2022-07-15T01:43:01;11.65;;;8.90;;
31728;SDS011;18309;43.658;1.312;2022-07-15T01:45:27;14.70;;;10.52;;
31728;SDS011;18309;43.658;1.312;2022-07-15T01:47:52;15.73;;;10.68;;
31728;SDS011;18309;43.658;1.312;2022-07-15T01:50:18;21.42;;;13.00;;
31728;SDS011;18309;43.658;1.312;2022-07-15T01:52:45;20.52;;;12.07;;
31728;SDS011;18309;43.658;1.312;2022-07-15T01:55:11;24.42;;;12.68;;
31728;SDS011;18309;43.658;1.312;2022-07-15T01:57:37;28.05;;;13.45;;
31728;SDS011;18309;43.658;1.312;2022-07-15T02:00:04;19.85;;;13.80;;
31728;SDS011;18309;43.658;1.312;2022-07-15T02:02:31;20.23;;;13.75;;
31728;SDS011;18309;43.658;1.312;2022-07-15T02:04:57;20.73;;;13.82;;
31728;SDS011;18309;43.658;1.312;2022-07-15T02:07:23;29.88;;;14.55;;
31728;SDS011;18309;43.658;1.312;2022-07-15T02:09:48;23.50;;;14.07;;
31728;SDS011;18309;43.658;1.312;2022-07-15T02:12:14;20.77;;;13.85;;
31728;SDS011;18309;43.658;1.312;2022-07-15T02:14:40;23.17;;;14.20;;
31728;SDS011;18309;43.658;1.312;2022-07-15T02:17:05;23.17;;;14.73;;
31728;SDS011;18309;43.658;1.312;2022-07-15T02:19:32;17.83;;;13.40;;
31728;SDS011;18309;43.658;1.312;2022-07-15T02:21:58;22.90;;;14.52;;
31728;SDS011;18309;43.658;1.312;2022-07-15T02:24:24;26.08;;;14.35;;
31728;SDS011;18309;43.658;1.312;2022-07-15T02:26:49;25.17;;;13.70;;
31728;SDS011;18309;43.658;1.312;2022-07-15T02:29:15;25.23;;;15.02;;
31728;SDS011;18309;43.658;1.312;2022-07-15T02:31:42;32.05;;;14.93;;
31728;SDS011;18309;43.658;1.312;2022-07-15T02:34:09;24.40;;;15.23;;
31728;SDS011;18309;43.658;1.312;2022-07-15T02:36:34;22.77;;;15.20;;
31728;SDS011;18309;43.658;1.312;2022-07-15T02:39:01;20.55;;;13.88;;
31728;SDS011;18309;43.658;1.312;2022-07-15T02:41:28;26.95;;;14.48;;
31728;SDS011;18309;43.658;1.312;2022-07-15T02:43:54;30.20;;;15.20;;
31728;SDS011;18309;43.658;1.312;2022-07-15T02:46:20;23.02;;;14.95;;
31728;SDS011;18309;43.658;1.312;2022-07-15T02:48:46;32.10;;;15.30;;
31728;SDS011;18309;43.658;1.312;2022-07-15T02:51:12;21.00;;;15.55;;
31728;SDS011;18309;43.658;1.312;2022-07-15T02:53:39;34.70;;;15.35;;
31728;SDS011;18309;43.658;1.312;2022-07-15T02:56:05;29.30;;;15.13;;
31728;SDS011;18309;43.658;1.312;2022-07-15T02:58:31;23.75;;;16.05;;
31728;SDS011;18309;43.658;1.312;2022-07-15T03:01:00;23.52;;;15.00;;
31728;SDS011;18309;43.658;1.312;2022-07-15T03:03:25;27.10;;;15.93;;
31728;SDS011;18309;43.658;1.312;2022-07-15T03:05:57;26.35;;;15.32;;
31728;SDS011;18309;43.658;1.312;2022-07-15T03:08:24;25.67;;;16.23;;
31728;SDS011;18309;43.658;1.312;2022-07-15T03:10:50;21.35;;;15.65;;
31728;SDS011;18309;43.658;1.312;2022-07-15T03:13:15;25.23;;;16.45;;
31728;SDS011;18309;43.658;1.312;2022-07-15T03:15:41;25.60;;;16.52;;
31728;SDS011;18309;43.658;1.312;2022-07-15T03:18:07;29.27;;;15.93;;
31728;SDS011;18309;43.658;1.312;2022-07-15T03:20:33;24.70;;;15.73;;
31728;SDS011;18309;43.658;1.312;2022-07-15T03:22:58;27.20;;;16.35;;
31728;SDS011;18309;43.658;1.312;2022-07-15T03:25:24;22.70;;;15.70;;
31728;SDS011;18309;43.658;1.312;2022-07-15T03:27:50;25.73;;;16.60;;
31728;SDS011;18309;43.658;1.312;2022-07-15T03:30:16;27.75;;;16.33;;
31728;SDS011;18309;43.658;1.312;2022-07-15T03:32:42;29.15;;;15.93;;
31728;SDS011;18309;43.658;1.312;2022-07-15T03:35:08;27.92;;;15.90;;
31728;SDS011;18309;43.658;1.312;2022-07-15T03:37:34;27.85;;;16.52;;
31728;SDS011;18309;43.658;1.312;2022-07-15T03:40:00;24.83;;;15.88;;
31728;SDS011;18309;43.658;1.312;2022-07-15T03:42:26;26.17;;;17.63;;
31728;SDS011;18309;43.658;1.312;2022-07-15T03:44:52;23.25;;;15.98;;
31728;SDS011;18309;43.658;1.312;2022-07-15T03:47:18;26.00;;;14.68;;
31728;SDS011;18309;43.658;1.312;2022-07-15T03:49:43;25.67;;;16.55;;
31728;SDS011;18309;43.658;1.312;2022-07-15T03:52:09;28.65;;;15.48;;
31728;SDS011;18309;43.658;1.312;2022-07-15T03:54:35;28.65;;;16.38;;
31728;SDS011;18309;43.658;1.312;2022-07-15T03:57:01;24.08;;;16.00;;
31728;SDS011;18309;43.658;1.312;2022-07-15T03:59:26;26.23;;;15.82;;
31728;SDS011;18309;43.658;1.312;2022-07-15T04:01:52;22.08;;;15.10;;
31728;SDS011;18309;43.658;1.312;2022-07-15T04:04:18;35.95;;;16.48;;
31728;SDS011;18309;43.658;1.312;2022-07-15T04:06:44;26.45;;;16.23;;
31728;SDS011;18309;43.658;1.312;2022-07-15T04:09:10;26.10;;;16.73;;
31728;SDS011;18309;43.658;1.312;2022-07-15T04:11:37;23.77;;;16.45;;
31728;SDS011;18309;43.658;1.312;2022-07-15T04:14:07;29.77;;;16.27;;
31728;SDS011;18309;43.658;1.312;2022-07-15T04:16:34;25.50;;;16.50;;
31728;SDS011;18309;43.658;1.312;2022-07-15T04:18:59;26.67;;;17.38;;
31728;SDS011;18309;43.658;1.312;2022-07-15T04:21:25;23.13;;;15.52;;
31728;SDS011;18309;43.658;1.312;2022-07-15T04:23:51;24.95;;;15.98;;
31728;SDS011;18309;43.658;1.312;2022-07-15T04:26:17;29.63;;;16.83;;
31728;SDS011;18309;43.658;1.312;2022-07-15T04:28:42;29.40;;;17.38;;
31728;SDS011;18309;43.658;1.312;2022-07-15T04:31:08;30.80;;;16.80;;
31728;SDS011;18309;43.658;1.312;2022-07-15T04:33:34;34.20;;;17.42;;
31728;SDS011;18309;43.658;1.312;2022-07-15T04:35:59;29.38;;;17.75;;
31728;SDS011;18309;43.658;1.312;2022-07-15T04:38:25;23.00;;;17.05;;
31728;SDS011;18309;43.658;1.312;2022-07-15T04:40:51;25.92;;;17.65;;
31728;SDS011;18309;43.658;1.312;2022-07-15T04:43:16;25.35;;;17.10;;
31728;SDS011;18309;43.658;1.312;2022-07-15T04:45:42;31.98;;;18.73;;
31728;SDS011;18309;43.658;1.312;2022-07-15T04:48:08;25.85;;;17.48;;
31728;SDS011;18309;43.658;1.312;2022-07-15T04:50:52;29.08;;;18.42;;
31728;SDS011;18309;43.658;1.312;2022-07-15T04:53:19;32.80;;;18.08;;
31728;SDS011;18309;43.658;1.312;2022-07-15T04:55:45;41.65;;;18.88;;
31728;SDS011;18309;43.658;1.312;2022-07-15T04:58:11;31.35;;;20.02;;
31728;SDS011;18309;43.658;1.312;2022-07-15T05:00:40;29.55;;;18.50;;
31728;SDS011;18309;43.658;1.312;2022-07-15T05:05:35;30.17;;;19.15;;
31728;SDS011;18309;43.658;1.312;2022-07-15T05:08:00;35.72;;;20.13;;
31728;SDS011;18309;43.658;1.312;2022-07-15T05:10:26;34.92;;;19.63;;
31728;SDS011;18309;43.658;1.312;2022-07-15T05:12:52;29.40;;;19.63;;
31728;SDS011;18309;43.658;1.312;2022-07-15T05:15:18;31.08;;;19.25;;
31728;SDS011;18309;43.658;1.312;2022-07-15T05:17:43;35.30;;;19.42;;
31728;SDS011;18309;43.658;1.312;2022-07-15T05:20:09;27.23;;;19.15;;
31728;SDS011;18309;43.658;1.312;2022-07-15T05:22:35;25.70;;;19.42;;
31728;SDS011;18309;43.658;1.312;2022-07-15T05:25:02;35.10;;;20.55;;
31728;SDS011;18309;43.658;1.312;2022-07-15T05:27:28;28.63;;;18.90;;
31728;SDS011;18309;43.658;1.312;2022-07-15T05:29:53;34.88;;;19.73;;
31728;SDS011;18309;43.658;1.312;2022-07-15T05:32:19;28.80;;;19.42;;
31728;SDS011;18309;43.658;1.312;2022-07-15T05:34:45;33.45;;;20.10;;
31728;SDS011;18309;43.658;1.312;2022-07-15T05:37:11;32.53;;;19.40;;
31728;SDS011;18309;43.658;1.312;2022-07-15T05:39:37;33.17;;;20.35;;
31728;SDS011;18309;43.658;1.312;2022-07-15T05:42:18;28.90;;;18.75;;
31728;SDS011;18309;43.658;1.312;2022-07-15T05:44:44;46.83;;;20.88;;
31728;SDS011;18309;43.658;1.312;2022-07-15T05:47:10;42.17;;;21.63;;
31728;SDS011;18309;43.658;1.312;2022-07-15T05:49:36;34.90;;;19.38;;
31728;SDS011;18309;43.658;1.312;2022-07-15T05:52:01;30.85;;;18.95;;
31728;SDS011;18309;43.658;1.312;2022-07-15T05:54:27;37.78;;;20.48;;
31728;SDS011;18309;43.658;1.312;2022-07-15T05:56:52;41.75;;;19.65;;
31728;SDS011;18309;43.658;1.312;2022-07-15T05:59:18;32.08;;;19.85;;
31728;SDS011;18309;43.658;1.312;2022-07-15T06:01:44;31.05;;;19.80;;
31728;SDS011;18309;43.658;1.312;2022-07-15T06:04:09;34.03;;;20.25;;
31728;SDS011;18309;43.658;1.312;2022-07-15T06:06:35;28.55;;;18.63;;
31728;SDS011;18309;43.658;1.312;2022-07-15T06:09:01;33.13;;;19.40;;
31728;SDS011;18309;43.658;1.312;2022-07-15T06:11:27;29.77;;;18.98;;
31728;SDS011;18309;43.658;1.312;2022-07-15T06:13:53;29.13;;;18.35;;
31728;SDS011;18309;43.658;1.312;2022-07-15T06:16:18;33.40;;;19.85;;
31728;SDS011;18309;43.658;1.312;2022-07-15T06:18:44;31.73;;;19.08;;
31728;SDS011;18309;43.658;1.312;2022-07-15T06:21:09;29.13;;;18.95;;
31728;SDS011;18309;43.658;1.312;2022-07-15T06:23:36;32.00;;;19.65;;
31728;SDS011;18309;43.658;1.312;2022-07-15T06:26:02;34.40;;;18.70;;
31728;SDS011;18309;43.658;1.312;2022-07-15T06:28:28;33.97;;;19.48;;
31728;SDS011;18309;43.658;1.312;2022-07-15T06:30:54;40.90;;;18.98;;
31728;SDS011;18309;43.658;1.312;2022-07-15T06:33:19;36.30;;;18.80;;
31728;SDS011;18309;43.658;1.312;2022-07-15T06:35:46;34.22;;;18.95;;
31728;SDS011;18309;43.658;1.312;2022-07-15T06:38:12;35.85;;;18.63;;
31728;SDS011;18309;43.658;1.312;2022-07-15T06:40:38;33.00;;;17.80;;
31728;SDS011;18309;43.658;1.312;2022-07-15T06:43:04;26.38;;;18.13;;
31728;SDS011;18309;43.658;1.312;2022-07-15T06:45:30;33.33;;;19.02;;
31728;SDS011;18309;43.658;1.312;2022-07-15T06:47:55;36.25;;;20.27;;
31728;SDS011;18309;43.658;1.312;2022-07-15T06:50:21;29.98;;;17.90;;
31728;SDS011;18309;43.658;1.312;2022-07-15T06:52:49;34.03;;;20.48;;
31728;SDS011;18309;43.658;1.312;2022-07-15T06:55:15;32.45;;;19.15;;
31728;SDS011;18309;43.658;1.312;2022-07-15T06:57:40;29.55;;;18.60;;
31728;SDS011;18309;43.658;1.312;2022-07-15T07:00:07;29.80;;;18.27;;
31728;SDS011;18309;43.658;1.312;2022-07-15T07:02:35;35.38;;;19.00;;
31728;SDS011;18309;43.658;1.312;2022-07-15T07:05:01;27.05;;;18.13;;
31728;SDS011;18309;43.658;1.312;2022-07-15T07:07:26;26.13;;;18.75;;
31728;SDS011;18309;43.658;1.312;2022-07-15T07:09:53;31.70;;;17.75;;
31728;SDS011;18309;43.658;1.312;2022-07-15T07:12:18;33.70;;;17.75;;
31728;SDS011;18309;43.658;1.312;2022-07-15T07:14:44;29.90;;;18.20;;
31728;SDS011;18309;43.658;1.312;2022-07-15T07:17:09;28.33;;;17.40;;
31728;SDS011;18309;43.658;1.312;2022-07-15T07:19:35;30.90;;;18.02;;
31728;SDS011;18309;43.658;1.312;2022-07-15T07:22:01;30.45;;;16.65;;
31728;SDS011;18309;43.658;1.312;2022-07-15T07:24:27;27.58;;;16.75;;
31728;SDS011;18309;43.658;1.312;2022-07-15T07:26:52;28.75;;;17.20;;
31728;SDS011;18309;43.658;1.312;2022-07-15T07:29:18;28.42;;;16.80;;
31728;SDS011;18309;43.658;1.312;2022-07-15T07:31:48;34.05;;;17.73;;
31728;SDS011;18309;43.658;1.312;2022-07-15T07:34:14;21.95;;;15.88;;
31728;SDS011;18309;43.658;1.312;2022-07-15T07:36:40;26.30;;;16.65;;
31728;SDS011;18309;43.658;1.312;2022-07-15T07:39:06;34.65;;;16.42;;
31728;SDS011;18309;43.658;1.312;2022-07-15T07:41:32;26.88;;;15.63;;
31728;SDS011;18309;43.658;1.312;2022-07-15T07:43:57;28.65;;;16.23;;
31728;SDS011;18309;43.658;1.312;2022-07-15T07:46:23;23.83;;;15.88;;
31728;SDS011;18309;43.658;1.312;2022-07-15T07:48:49;28.65;;;16.10;;
31728;SDS011;18309;43.658;1.312;2022-07-15T07:51:16;26.40;;;15.23;;
31728;SDS011;18309;43.658;1.312;2022-07-15T07:53:42;25.50;;;15.73;;
31728;SDS011;18309;43.658;1.312;2022-07-15T07:56:08;28.98;;;15.85;;
31728;SDS011;18309;43.658;1.312;2022-07-15T07:58:34;23.50;;;16.05;;
31728;SDS011;18309;43.658;1.312;2022-07-15T08:01:00;28.13;;;15.70;;
31728;SDS011;18309;43.658;1.312;2022-07-15T08:03:26;23.58;;;15.80;;
31728;SDS011;18309;43.658;1.312;2022-07-15T08:05:54;26.27;;;15.02;;
31728;SDS011;18309;43.658;1.312;2022-07-15T08:08:21;24.40;;;15.85;;
31728;SDS011;18309;43.658;1.312;2022-07-15T08:10:48;29.77;;;14.82;;
31728;SDS011;18309;43.658;1.312;2022-07-15T08:13:19;21.13;;;14.93;;
31728;SDS011;18309;43.658;1.312;2022-07-15T08:15:47;26.15;;;14.80;;
31728;SDS011;18309;43.658;1.312;2022-07-15T08:18:13;28.85;;;15.80;;
31728;SDS011;18309;43.658;1.312;2022-07-15T08:20:40;23.52;;;14.65;;
31728;SDS011;18309;43.658;1.312;2022-07-15T08:23:06;23.55;;;13.88;;
31728;SDS011;18309;43.658;1.312;2022-07-15T08:25:33;21.45;;;14.82;;
31728;SDS011;18309;43.658;1.312;2022-07-15T08:28:00;24.92;;;13.90;;
31728;SDS011;18309;43.658;1.312;2022-07-15T08:30:29;24.05;;;12.95;;
31728;SDS011;18309;43.658;1.312;2022-07-15T08:32:56;25.10;;;13.98;;
31728;SDS011;18309;43.658;1.312;2022-07-15T08:35:22;27.33;;;14.18;;
31728;SDS011;18309;43.658;1.312;2022-07-15T08:37:49;28.38;;;13.57;;
31728;SDS011;18309;43.658;1.312;2022-07-15T08:40:14;26.13;;;14.27;;
31728;SDS011;18309;43.658;1.312;2022-07-15T08:42:41;23.60;;;13.35;;
31728;SDS011;18309;43.658;1.312;2022-07-15T08:45:11;25.70;;;13.43;;
31728;SDS011;18309;43.658;1.312;2022-07-15T08:47:39;23.88;;;12.77;;
31728;SDS011;18309;43.658;1.312;2022-07-15T08:50:11;27.33;;;12.57;;
31728;SDS011;18309;43.658;1.312;2022-07-15T08:52:39;30.40;;;14.25;;
31728;SDS011;18309;43.658;1.312;2022-07-15T08:55:07;28.83;;;13.50;;
31728;SDS011;18309;43.658;1.312;2022-07-15T08:57:33;25.83;;;12.75;;
31728;SDS011;18309;43.658;1.312;2022-07-15T08:59:59;33.90;;;13.98;;
31728;SDS011;18309;43.658;1.312;2022-07-15T09:02:25;28.73;;;12.20;;
31728;SDS011;18309;43.658;1.312;2022-07-15T09:13:29;25.45;;;12.38;;
31728;SDS011;18309;43.658;1.312;2022-07-15T09:15:56;29.52;;;12.88;;
31728;SDS011;18309;43.658;1.312;2022-07-15T09:18:30;19.60;;;12.25;;
31728;SDS011;18309;43.658;1.312;2022-07-15T09:20:58;17.70;;;12.00;;
31728;SDS011;18309;43.658;1.312;2022-07-15T09:23:25;25.38;;;12.00;;
31728;SDS011;18309;43.658;1.312;2022-07-15T09:25:56;16.23;;;11.20;;
31728;SDS011;18309;43.658;1.312;2022-07-15T09:28:34;18.17;;;11.50;;
31728;SDS011;18309;43.658;1.312;2022-07-15T09:31:02;22.33;;;12.15;;
31728;SDS011;18309;43.658;1.312;2022-07-15T09:33:47;23.77;;;11.90;;
31728;SDS011;18309;43.658;1.312;2022-07-15T09:36:20;21.08;;;11.52;;
31728;SDS011;18309;43.658;1.312;2022-07-15T09:41:20;18.35;;;11.30;;
31728;SDS011;18309;43.658;1.312;2022-07-15T09:44:06;25.60;;;11.35;;
31728;SDS011;18309;43.658;1.312;2022-07-15T09:46:45;22.38;;;12.13;;
31728;SDS011;18309;43.658;1.312;2022-07-15T09:49:13;21.75;;;11.55;;
31728;SDS011;18309;43.658;1.312;2022-07-15T09:51:44;25.58;;;11.68;;
31728;SDS011;18309;43.658;1.312;2022-07-15T09:54:15;24.70;;;11.95;;
31728;SDS011;18309;43.658;1.312;2022-07-15T09:56:41;19.67;;;11.68;;
31728;SDS011;18309;43.658;1.312;2022-07-15T09:59:09;20.95;;;11.25;;
31728;SDS011;18309;43.658;1.312;2022-07-15T10:01:35;23.35;;;11.80;;
31728;SDS011;18309;43.658;1.312;2022-07-15T10:04:04;23.50;;;11.68;;
31728;SDS011;18309;43.658;1.312;2022-07-15T10:06:30;20.77;;;11.45;;
31728;SDS011;18309;43.658;1.312;2022-07-15T10:08:58;26.30;;;11.57;;
31728;SDS011;18309;43.658;1.312;2022-07-15T10:11:24;18.60;;;10.75;;
31728;SDS011;18309;43.658;1.312;2022-07-15T10:17:02;16.48;;;10.32;;
31728;SDS011;18309;43.658;1.312;2022-07-15T10:20:17;17.35;;;10.40;;
31728;SDS011;18309;43.658;1.312;2022-07-15T10:25:50;15.57;;;9.55;;
31728;SDS011;18309;43.658;1.312;2022-07-15T10:36:39;14.32;;;8.93;;
31728;SDS011;18309;43.658;1.312;2022-07-15T10:39:06;19.90;;;10.43;;
31728;SDS011;18309;43.658;1.312;2022-07-15T10:41:47;24.98;;;8.57;;
31728;SDS011;18309;43.658;1.312;2022-07-15T10:44:24;16.08;;;7.90;;
31728;SDS011;18309;43.658;1.312;2022-07-15T10:49:40;15.40;;;8.15;;
31728;SDS011;18309;43.658;1.312;2022-07-15T10:52:16;16.42;;;8.60;;
31728;SDS011;18309;43.658;1.312;2022-07-15T10:57:49;13.18;;;8.13;;
31728;SDS011;18309;43.658;1.312;2022-07-15T11:13:45;14.52;;;7.80;;
31728;SDS011;18309;43.658;1.312;2022-07-15T11:16:13;13.05;;;8.10;;
31728;SDS011;18309;43.658;1.312;2022-07-15T11:18:46;16.15;;;8.45;;
31728;SDS011;18309;43.658;1.312;2022-07-15T11:21:14;15.30;;;8.38;;
31728;SDS011;18309;43.658;1.312;2022-07-15T11:23:44;16.48;;;7.95;;
31728;SDS011;18309;43.658;1.312;2022-07-15T11:26:11;15.30;;;7.45;;
31728;SDS011;18309;43.658;1.312;2022-07-15T11:28:36;11.95;;;7.10;;
31728;SDS011;18309;43.658;1.312;2022-07-15T11:31:02;17.83;;;7.43;;
31728;SDS011;18309;43.658;1.312;2022-07-15T11:33:28;15.07;;;7.40;;
31728;SDS011;18309;43.658;1.312;2022-07-15T11:38:32;12.05;;;7.78;;
31728;SDS011;18309;43.658;1.312;2022-07-15T11:41:04;14.63;;;6.90;;
31728;SDS011;18309;43.658;1.312;2022-07-15T11:44:01;11.80;;;7.10;;
31728;SDS011;18309;43.658;1.312;2022-07-15T11:46:50;14.48;;;7.88;;
31728;SDS011;18309;43.658;1.312;2022-07-15T11:49:29;16.67;;;7.03;;
31728;SDS011;18309;43.658;1.312;2022-07-15T11:52:01;12.25;;;6.47;;
31728;SDS011;18309;43.658;1.312;2022-07-15T11:54:28;11.82;;;6.45;;
31728;SDS011;18309;43.658;1.312;2022-07-15T11:56:59;12.15;;;6.30;;
31728;SDS011;18309;43.658;1.312;2022-07-15T11:59:26;9.57;;;5.95;;
31728;SDS011;18309;43.658;1.312;2022-07-15T12:02:04;8.88;;;5.80;;
31728;SDS011;18309;43.658;1.312;2022-07-15T12:04:30;8.73;;;5.03;;
31728;SDS011;18309;43.658;1.312;2022-07-15T12:06:57;11.25;;;5.70;;
31728;SDS011;18309;43.658;1.312;2022-07-15T12:09:23;9.30;;;5.72;;
31728;SDS011;18309;43.658;1.312;2022-07-15T12:11:52;9.35;;;5.57;;
31728;SDS011;18309;43.658;1.312;2022-07-15T12:14:22;11.77;;;3.90;;
31728;SDS011;18309;43.658;1.312;2022-07-15T12:16:49;5.50;;;4.30;;
31728;SDS011;18309;43.658;1.312;2022-07-15T12:19:17;10.23;;;4.70;;
31728;SDS011;18309;43.658;1.312;2022-07-15T12:21:51;12.40;;;4.47;;
31728;SDS011;18309;43.658;1.312;2022-07-15T12:24:23;9.70;;;5.40;;
31728;SDS011;18309;43.658;1.312;2022-07-15T12:27:03;9.65;;;4.65;;
31728;SDS011;18309;43.658;1.312;2022-07-15T12:29:30;8.48;;;4.82;;
31728;SDS011;18309;43.658;1.312;2022-07-15T12:34:47;5.15;;;2.80;;
31728;SDS011;18309;43.658;1.312;2022-07-15T12:37:11;12.88;;;4.20;;
31728;SDS011;18309;43.658;1.312;2022-07-15T12:40:01;10.63;;;6.13;;
31728;SDS011;18309;43.658;1.312;2022-07-15T12:42:30;12.23;;;7.55;;
31728;SDS011;18309;43.658;1.312;2022-07-15T12:45:20;10.35;;;6.68;;
31728;SDS011;18309;43.658;1.312;2022-07-15T12:48:00;18.48;;;6.88;;
31728;SDS011;18309;43.658;1.312;2022-07-15T12:50:27;12.55;;;7.40;;
31728;SDS011;18309;43.658;1.312;2022-07-15T12:53:02;12.23;;;7.13;;
31728;SDS011;18309;43.658;1.312;2022-07-15T12:55:29;16.83;;;7.57;;
31728;SDS011;18309;43.658;1.312;2022-07-15T12:58:07;14.68;;;9.50;;
31728;SDS011;18309;43.658;1.312;2022-07-15T13:00:34;14.80;;;8.60;;
31728;SDS011;18309;43.658;1.312;2022-07-15T13:03:17;16.52;;;9.43;;
31728;SDS011;18309;43.658;1.312;2022-07-15T13:05:47;16.50;;;9.48;;
31728;SDS011;18309;43.658;1.312;2022-07-15T13:08:28;15.07;;;8.57;;
31728;SDS011;18309;43.658;1.312;2022-07-15T13:10:57;14.43;;;6.65;;
31728;SDS011;18309;43.658;1.312;2022-07-15T13:13:24;16.88;;;6.57;;
31728;SDS011;18309;43.658;1.312;2022-07-15T13:15:51;14.48;;;8.18;;
31728;SDS011;18309;43.658;1.312;2022-07-15T13:18:17;16.35;;;10.98;;
31728;SDS011;18309;43.658;1.312;2022-07-15T13:20:43;18.17;;;11.52;;
31728;SDS011;18309;43.658;1.312;2022-07-15T13:23:09;17.65;;;11.48;;
31728;SDS011;18309;43.658;1.312;2022-07-15T13:25:35;26.38;;;10.80;;
31728;SDS011;18309;43.658;1.312;2022-07-15T13:28:04;12.70;;;8.85;;
31728;SDS011;18309;43.658;1.312;2022-07-15T13:30:31;17.33;;;7.85;;
31728;SDS011;18309;43.658;1.312;2022-07-15T13:32:57;19.00;;;9.25;;
31728;SDS011;18309;43.658;1.312;2022-07-15T13:35:23;14.18;;;9.48;;
31728;SDS011;18309;43.658;1.312;2022-07-15T13:37:49;10.40;;;8.15;;
31728;SDS011;18309;43.658;1.312;2022-07-15T13:40:14;17.10;;;9.27;;
31728;SDS011;18309;43.658;1.312;2022-07-15T13:42:41;13.57;;;8.25;;
31728;SDS011;18309;43.658;1.312;2022-07-15T13:45:08;13.48;;;8.85;;
31728;SDS011;18309;43.658;1.312;2022-07-15T13:47:35;17.63;;;11.18;;
31728;SDS011;18309;43.658;1.312;2022-07-15T13:50:00;15.68;;;11.40;;
31728;SDS011;18309;43.658;1.312;2022-07-15T13:52:47;22.27;;;11.23;;
31728;SDS011;18309;43.658;1.312;2022-07-15T13:55:13;15.07;;;9.45;;
31728;SDS011;18309;43.658;1.312;2022-07-15T13:57:40;12.38;;;8.60;;
31728;SDS011;18309;43.658;1.312;2022-07-15T14:00:08;10.95;;;6.90;;
31728;SDS011;18309;43.658;1.312;2022-07-15T14:02:39;11.50;;;7.00;;
31728;SDS011;18309;43.658;1.312;2022-07-15T14:05:05;10.38;;;7.25;;
31728;SDS011;18309;43.658;1.312;2022-07-15T14:07:32;12.85;;;7.70;;
31728;SDS011;18309;43.658;1.312;2022-07-15T14:09:58;11.38;;;8.57;;
31728;SDS011;18309;43.658;1.312;2022-07-15T14:12:24;14.20;;;6.90;;
31728;SDS011;18309;43.658;1.312;2022-07-15T14:14:49;14.50;;;7.13;;
31728;SDS011;18309;43.658;1.312;2022-07-15T14:17:15;9.80;;;7.03;;
31728;SDS011;18309;43.658;1.312;2022-07-15T14:19:41;12.43;;;7.25;;
31728;SDS011;18309;43.658;1.312;2022-07-15T14:22:07;14.80;;;6.25;;
31728;SDS011;18309;43.658;1.312;2022-07-15T14:24:33;17.13;;;6.57;;
31728;SDS011;18309;43.658;1.312;2022-07-15T14:26:59;11.40;;;6.75;;
31728;SDS011;18309;43.658;1.312;2022-07-15T14:29:25;9.07;;;6.68;;
31728;SDS011;18309;43.658;1.312;2022-07-15T14:31:51;10.85;;;6.80;;
31728;SDS011;18309;43.658;1.312;2022-07-15T14:34:16;7.60;;;5.68;;
31728;SDS011;18309;43.658;1.312;2022-07-15T14:36:42;9.23;;;6.97;;
31728;SDS011;18309;43.658;1.312;2022-07-15T14:39:08;10.90;;;7.63;;
31728;SDS011;18309;43.658;1.312;2022-07-15T14:41:34;12.05;;;6.55;;
31728;SDS011;18309;43.658;1.312;2022-07-15T14:44:01;8.63;;;6.95;;
31728;SDS011;18309;43.658;1.312;2022-07-15T14:46:27;13.07;;;6.40;;
31728;SDS011;18309;43.658;1.312;2022-07-15T14:48:53;14.68;;;7.53;;
31728;SDS011;18309;43.658;1.312;2022-07-15T14:51:18;10.63;;;7.82;;
31728;SDS011;18309;43.658;1.312;2022-07-15T14:53:44;12.60;;;7.03;;
31728;SDS011;18309;43.658;1.312;2022-07-15T14:56:10;10.13;;;8.38;;
31728;SDS011;18309;43.658;1.312;2022-07-15T14:58:36;14.05;;;9.02;;
31728;SDS011;18309;43.658;1.312;2022-07-15T15:01:02;10.77;;;7.97;;
31728;SDS011;18309;43.658;1.312;2022-07-15T15:03:28;10.98;;;7.07;;
31728;SDS011;18309;43.658;1.312;2022-07-15T15:05:53;8.00;;;6.40;;
31728;SDS011;18309;43.658;1.312;2022-07-15T15:08:19;13.07;;;6.68;;
31728;SDS011;18309;43.658;1.312;2022-07-15T15:10:45;10.45;;;5.88;;
31728;SDS011;18309;43.658;1.312;2022-07-15T15:13:11;8.23;;;5.18;;
31728;SDS011;18309;43.658;1.312;2022-07-15T15:15:37;7.97;;;4.50;;
31728;SDS011;18309;43.658;1.312;2022-07-15T15:18:03;7.32;;;3.70;;
31728;SDS011;18309;43.658;1.312;2022-07-15T15:20:28;5.95;;;3.53;;
31728;SDS011;18309;43.658;1.312;2022-07-15T15:22:54;6.07;;;3.72;;